Time;durP1;ratioP1;P1;durP2;ratioP2;P2;SDS_P1;SDS_P2;PMS_P1;PMS_P2;Temp;Humidity;BMP_temperature;BMP_pressure;BME280_temperature;BME280_humidity;BME280_pressure;Samples;Min_cycle;Max_cycle;Signal;HPM_P1;HPM_P2
2021/10/30 00:01:08;;;;;;;75.88;52.33;;;8.00;99.90;;;;;;4955784;28;20074;-67
2021/10/30 00:03:36;;;;;;;73.50;51.03;;;8.10;99.90;;;;;;4974997;28;20129;-68
2021/10/30 00:06:03;;;;;;;81.03;57.75;;;8.00;99.90;;;;;;4959551;28;20683;-69
2021/10/30 00:08:30;;;;;;;78.20;55.10;;;8.00;99.90;;;;;;4950570;28;20500;-65
2021/10/30 00:10:58;;;;;;;72.93;53.78;;;7.90;99.90;;;;;;4948970;28;20634;-70
2021/10/30 00:13:27;;;;;;;64.18;46.08;;;7.90;99.90;;;;;;4961199;28;20360;-65
2021/10/30 00:15:58;;;;;;;71.82;51.90;;;7.90;99.90;;;;;;4968150;28;20453;-65
2021/10/30 00:18:26;;;;;;;73.50;54.03;;;7.80;99.90;;;;;;4968687;28;20043;-65
2021/10/30 00:20:53;;;;;;;68.78;52.72;;;7.80;99.90;;;;;;4966746;28;20078;-66
2021/10/30 00:23:21;;;;;;;75.88;53.20;;;7.80;99.90;;;;;;4967655;28;20123;-67
2021/10/30 00:25:48;;;;;;;70.55;55.05;;;7.80;99.90;;;;;;4965813;28;20586;-65
2021/10/30 00:28:14;;;;;;;83.13;55.45;;;7.70;99.90;;;;;;4965758;28;20047;-66
2021/10/30 00:30:41;;;;;;;84.40;58.15;;;7.70;99.90;;;;;;4967027;28;20093;-68
2021/10/30 00:33:08;;;;;;;68.57;48.83;;;7.70;99.90;;;;;;4966868;28;20113;-67
2021/10/30 00:35:35;;;;;;;71.43;52.28;;;7.70;99.90;;;;;;4968247;28;20058;-67
2021/10/30 00:38:02;;;;;;;75.75;52.85;;;7.60;99.90;;;;;;4965805;28;20055;-65
2021/10/30 00:40:29;;;;;;;74.57;50.78;;;7.60;99.90;;;;;;4966783;28;20097;-70
2021/10/30 00:42:56;;;;;;;73.38;55.13;;;7.60;99.90;;;;;;4966186;28;20058;-65
2021/10/30 00:45:23;;;;;;;73.43;54.20;;;7.60;99.90;;;;;;4967911;28;20114;-65
2021/10/30 00:47:50;;;;;;;67.80;50.60;;;7.60;99.90;;;;;;4966639;28;20062;-65
2021/10/30 00:50:17;;;;;;;69.82;52.33;;;7.60;99.90;;;;;;4952789;28;20079;-65
2021/10/30 00:52:45;;;;;;;76.28;53.78;;;7.60;99.90;;;;;;4947949;28;20048;-65
2021/10/30 00:55:14;;;;;;;81.35;58.50;;;7.60;99.90;;;;;;4948226;28;20066;-70
2021/10/30 00:57:41;;;;;;;70.60;51.70;;;7.60;99.90;;;;;;4947562;28;20075;-65
2021/10/30 01:00:10;;;;;;;80.28;54.95;;;7.60;99.90;;;;;;4956379;28;20665;-67
2021/10/30 01:02:37;;;;;;;72.68;51.85;;;7.50;99.90;;;;;;4948552;28;20043;-66
2021/10/30 01:05:05;;;;;;;81.78;56.42;;;7.60;99.90;;;;;;4947615;28;20143;-65
2021/10/30 01:07:32;;;;;;;70.28;51.50;;;7.60;99.90;;;;;;4964760;28;20106;-65
2021/10/30 01:10:00;;;;;;;71.75;55.38;;;7.60;99.90;;;;;;4946869;28;20054;-65
2021/10/30 01:12:27;;;;;;;75.68;54.30;;;7.60;99.90;;;;;;4947051;28;20063;-68
2021/10/30 01:14:56;;;;;;;71.13;52.70;;;7.50;99.90;;;;;;4947127;28;20114;-66
2021/10/30 01:17:22;;;;;;;73.00;54.53;;;7.50;99.90;;;;;;4946772;28;20059;-70
2021/10/30 01:19:54;;;;;;;73.47;55.15;;;7.50;99.90;;;;;;4946611;28;20182;-66
2021/10/30 01:22:21;;;;;;;75.40;56.33;;;7.50;99.90;;;;;;4944993;28;20147;-70
2021/10/30 01:24:49;;;;;;;77.32;55.38;;;7.50;99.90;;;;;;4947206;28;20117;-67
2021/10/30 01:27:20;;;;;;;76.25;55.30;;;7.50;99.90;;;;;;4961715;28;20109;-66
2021/10/30 01:29:51;;;;;;;74.20;54.28;;;7.60;99.90;;;;;;4950979;28;20557;-70
2021/10/30 01:32:20;;;;;;;73.53;57.63;;;7.50;99.90;;;;;;4946217;28;20130;-69
2021/10/30 01:34:47;;;;;;;78.72;55.92;;;7.50;99.90;;;;;;4947359;28;20082;-66
2021/10/30 01:37:14;;;;;;;77.45;57.97;;;7.50;99.90;;;;;;4946320;28;20095;-64
2021/10/30 01:39:42;;;;;;;73.13;54.28;;;7.50;99.90;;;;;;4946626;28;20098;-65
2021/10/30 01:42:09;;;;;;;73.78;54.45;;;7.50;99.90;;;;;;4943627;28;20508;-67
2021/10/30 01:44:36;;;;;;;71.85;55.78;;;7.50;99.90;;;;;;4946794;28;20047;-65
2021/10/30 01:47:03;;;;;;;68.05;50.85;;;7.40;99.90;;;;;;4946029;28;20094;-68
2021/10/30 01:49:30;;;;;;;74.82;52.83;;;7.40;99.90;;;;;;4948536;28;20144;-67
2021/10/30 01:51:57;;;;;;;69.70;51.03;;;7.40;99.90;;;;;;4953949;28;20110;-66
2021/10/30 01:54:24;;;;;;;71.68;51.95;;;7.30;99.90;;;;;;4947397;28;20599;-65
2021/10/30 01:56:53;;;;;;;71.50;54.42;;;7.30;99.90;;;;;;4954269;28;20408;-75
2021/10/30 01:59:20;;;;;;;71.45;52.22;;;7.30;99.90;;;;;;4965409;28;20137;-66
2021/10/30 02:01:47;;;;;;;73.57;52.90;;;7.20;99.90;;;;;;4960321;28;20059;-69
2021/10/30 02:04:15;;;;;;;64.90;52.72;;;7.20;99.90;;;;;;4964265;28;20058;-66
2021/10/30 02:06:42;;;;;;;71.72;54.13;;;7.20;99.90;;;;;;4965744;28;20074;-68
2021/10/30 02:09:09;;;;;;;73.10;54.58;;;7.20;99.90;;;;;;4967810;28;20046;-70
2021/10/30 02:11:36;;;;;;;69.53;53.65;;;7.20;99.90;;;;;;4967726;28;20050;-66
2021/10/30 02:14:03;;;;;;;75.93;56.58;;;7.20;99.90;;;;;;4965611;28;20066;-75
2021/10/30 02:16:34;;;;;;;69.88;55.25;;;7.10;99.90;;;;;;4965344;28;20169;-65
2021/10/30 02:19:01;;;;;;;63.85;49.72;;;7.10;99.90;;;;;;4966536;28;20046;-65
2021/10/30 02:21:28;;;;;;;70.65;53.08;;;7.00;99.90;;;;;;4967473;28;20146;-68
2021/10/30 02:23:56;;;;;;;68.20;52.72;;;7.00;99.90;;;;;;4965353;28;20456;-68
2021/10/30 02:26:23;;;;;;;62.22;48.50;;;7.00;99.90;;;;;;4962481;28;20118;-66
2021/10/30 02:28:50;;;;;;;67.78;50.92;;;6.90;99.90;;;;;;4964510;28;20075;-68
2021/10/30 02:31:18;;;;;;;66.55;49.58;;;6.90;99.90;;;;;;4964135;28;20058;-72
2021/10/30 02:33:45;;;;;;;62.92;50.63;;;6.80;99.90;;;;;;4952033;28;20158;-64
2021/10/30 02:36:12;;;;;;;70.38;50.42;;;6.80;99.90;;;;;;4962828;28;20217;-68
2021/10/30 02:38:39;;;;;;;66.32;51.00;;;6.80;99.90;;;;;;4963425;28;20150;-73
2021/10/30 02:41:06;;;;;;;70.68;52.47;;;6.80;99.90;;;;;;4968994;28;20054;-66
2021/10/30 02:43:33;;;;;;;66.05;49.97;;;6.70;99.90;;;;;;4963657;28;20087;-67
2021/10/30 02:45:59;;;;;;;62.92;48.78;;;6.80;99.90;;;;;;4963877;28;20067;-69
2021/10/30 02:48:26;;;;;;;65.90;49.08;;;6.70;99.90;;;;;;4947674;28;20471;-73
2021/10/30 02:50:54;;;;;;;69.95;50.40;;;6.70;99.90;;;;;;4965472;28;20086;-68
2021/10/30 02:53:21;;;;;;;60.00;46.00;;;6.70;99.90;;;;;;4963216;28;20620;-68
2021/10/30 02:55:48;;;;;;;65.13;50.17;;;6.60;99.90;;;;;;4975001;28;20138;-68
2021/10/30 02:58:15;;;;;;;67.22;50.60;;;6.60;99.90;;;;;;4965136;28;20142;-67
2021/10/30 03:00:42;;;;;;;58.00;44.65;;;6.60;99.90;;;;;;4968730;28;20492;-70
2021/10/30 03:03:09;;;;;;;61.88;47.35;;;6.60;99.90;;;;;;4969026;28;20051;-67
2021/10/30 03:05:36;;;;;;;66.85;48.15;;;6.60;99.90;;;;;;4968097;28;20133;-69
2021/10/30 03:08:03;;;;;;;64.18;46.67;;;6.50;99.90;;;;;;4967375;28;20134;-67
2021/10/30 03:10:30;;;;;;;56.75;43.20;;;6.50;99.90;;;;;;4969283;28;20046;-67
2021/10/30 03:12:57;;;;;;;63.55;47.20;;;6.50;99.90;;;;;;4972662;28;20483;-68
2021/10/30 03:15:24;;;;;;;63.63;46.25;;;6.50;99.90;;;;;;4967746;28;20125;-67
2021/10/30 03:17:52;;;;;;;64.47;47.15;;;6.50;99.90;;;;;;4968576;28;20639;-67
2021/10/30 03:20:19;;;;;;;55.85;44.88;;;6.50;99.90;;;;;;4965860;28;20058;-73
2021/10/30 03:22:46;;;;;;;60.22;46.35;;;6.50;99.90;;;;;;4968149;28;20070;-65
2021/10/30 03:25:13;;;;;;;55.38;44.38;;;6.40;99.90;;;;;;4968473;28;20059;-65
2021/10/30 03:27:40;;;;;;;63.70;45.95;;;6.40;99.90;;;;;;4968223;28;20121;-66
2021/10/30 03:30:08;;;;;;;59.97;44.80;;;6.40;99.90;;;;;;4963651;28;20046;-68
2021/10/30 03:32:35;;;;;;;54.90;41.15;;;6.40;99.90;;;;;;4967149;28;20151;-67
2021/10/30 03:35:04;;;;;;;58.70;44.25;;;6.30;99.90;;;;;;4969295;28;20059;-71
2021/10/30 03:37:34;;;;;;;65.95;48.65;;;6.40;99.90;;;;;;4966321;28;20043;-65
2021/10/30 03:40:06;;;;;;;55.80;44.20;;;6.30;99.90;;;;;;4965699;28;20055;-67
2021/10/30 03:42:34;;;;;;;58.35;43.95;;;6.30;99.90;;;;;;4971417;28;20077;-67
2021/10/30 03:45:04;;;;;;;66.88;43.28;;;6.30;99.90;;;;;;4966103;28;20043;-67
2021/10/30 03:47:31;;;;;;;61.60;46.47;;;6.30;99.90;;;;;;4968622;28;20495;-73
2021/10/30 03:50:00;;;;;;;66.68;49.28;;;6.20;99.90;;;;;;4965714;28;20345;-66
2021/10/30 03:52:27;;;;;;;66.35;47.97;;;6.20;99.90;;;;;;4968089;28;20050;-65
2021/10/30 03:54:54;;;;;;;63.47;46.25;;;6.20;99.90;;;;;;4968256;28;20188;-68
2021/10/30 03:57:22;;;;;;;73.68;50.10;;;6.20;99.90;;;;;;4967967;28;20062;-69
2021/10/30 03:59:49;;;;;;;74.15;54.28;;;6.20;99.90;;;;;;4967758;28;20053;-69
2021/10/30 04:02:16;;;;;;;68.75;52.50;;;6.20;99.90;;;;;;4964881;28;20426;-69
2021/10/30 04:04:43;;;;;;;70.95;51.30;;;6.20;99.90;;;;;;4968691;28;20534;-65
2021/10/30 04:07:10;;;;;;;62.45;47.70;;;6.20;99.90;;;;;;4968650;28;20110;-66
2021/10/30 04:09:39;;;;;;;72.13;51.53;;;6.20;99.90;;;;;;4968194;28;20057;-65
2021/10/30 04:12:07;;;;;;;74.72;54.67;;;6.30;99.90;;;;;;4967374;28;20125;-77
2021/10/30 04:14:34;;;;;;;74.20;55.60;;;6.30;99.90;;;;;;4966838;28;20163;-65
2021/10/30 04:17:01;;;;;;;78.93;54.20;;;6.40;99.90;;;;;;4968201;28;20125;-68
2021/10/30 04:19:27;;;;;;;76.97;57.05;;;6.40;99.90;;;;;;4966859;28;20046;-65
2021/10/30 04:21:54;;;;;;;86.53;56.17;;;6.40;99.90;;;;;;4968675;28;20473;-67
2021/10/30 04:24:21;;;;;;;86.90;61.28;;;6.40;99.90;;;;;;4962809;28;20471;-67
2021/10/30 04:26:48;;;;;;;81.47;59.92;;;6.40;99.90;;;;;;4953957;28;20051;-68
2021/10/30 04:29:15;;;;;;;84.45;61.20;;;6.50;99.90;;;;;;4965661;28;20043;-68
2021/10/30 04:31:43;;;;;;;88.20;60.92;;;6.50;99.90;;;;;;4968063;28;20130;-67
2021/10/30 04:34:18;;;;;;;76.53;56.25;;;6.50;99.90;;;;;;4965157;28;20061;-66
2021/10/30 04:36:47;;;;;;;87.28;61.78;;;6.50;99.90;;;;;;4962098;28;20512;-68
2021/10/30 04:39:14;;;;;;;88.40;60.10;;;6.50;99.90;;;;;;4963039;28;20082;-65
2021/10/30 04:41:42;;;;;;;89.32;60.22;;;6.50;99.90;;;;;;4967323;28;20455;-67
2021/10/30 04:44:09;;;;;;;81.80;58.92;;;6.50;99.90;;;;;;4965037;28;20098;-67
2021/10/30 04:46:37;;;;;;;82.30;58.78;;;6.50;99.90;;;;;;4967391;28;20160;-66
2021/10/30 04:49:04;;;;;;;82.75;60.58;;;6.40;99.90;;;;;;4964532;28;20044;-67
2021/10/30 04:51:31;;;;;;;89.00;63.90;;;6.40;99.90;;;;;;4967143;28;20105;-67
2021/10/30 04:53:58;;;;;;;89.15;60.92;;;6.50;99.90;;;;;;4966325;28;20054;-68
2021/10/30 04:56:27;;;;;;;81.13;60.05;;;6.50;99.90;;;;;;4966730;28;20473;-65
2021/10/30 04:58:54;;;;;;;85.78;60.15;;;6.40;99.90;;;;;;4967773;28;20544;-64
2021/10/30 05:01:21;;;;;;;87.03;62.53;;;6.40;99.90;;;;;;4966294;28;20646;-66
2021/10/30 05:03:48;;;;;;;87.30;61.10;;;6.40;99.90;;;;;;4966558;28;20051;-66
2021/10/30 05:06:15;;;;;;;87.68;61.75;;;6.40;99.90;;;;;;4965736;28;20413;-65
2021/10/30 05:08:42;;;;;;;98.60;65.55;;;6.40;99.90;;;;;;4962865;28;20043;-66
2021/10/30 05:11:09;;;;;;;86.82;59.80;;;6.40;99.90;;;;;;4965695;28;20137;-68
2021/10/30 05:13:37;;;;;;;81.82;56.30;;;6.40;99.90;;;;;;4964050;28;20118;-65
2021/10/30 05:16:04;;;;;;;85.57;59.25;;;6.30;99.90;;;;;;4963575;28;20047;-68
2021/10/30 05:18:31;;;;;;;83.82;59.60;;;6.30;99.90;;;;;;4964755;28;20051;-69
2021/10/30 05:20:58;;;;;;;90.82;62.38;;;6.30;99.90;;;;;;4965703;28;20085;-66
2021/10/30 05:23:27;;;;;;;84.80;60.97;;;6.30;99.90;;;;;;4966927;28;20121;-66
2021/10/30 05:25:54;;;;;;;88.55;62.78;;;6.30;99.90;;;;;;4967379;28;20062;-66
2021/10/30 05:28:21;;;;;;;84.22;56.78;;;6.30;99.90;;;;;;4948249;28;20437;-65
2021/10/30 05:30:49;;;;;;;86.97;60.22;;;6.30;99.90;;;;;;4950041;28;20081;-68
2021/10/30 05:33:17;;;;;;;89.22;64.93;;;6.30;99.90;;;;;;4947289;28;20130;-71
2021/10/30 05:36:04;;;;;;;88.45;61.75;;;6.30;99.90;;;;;;4943714;28;20061;-66
2021/10/30 05:38:47;;;;;;;94.13;63.78;;;6.30;99.90;;;;;;4959275;28;20118;-64
2021/10/30 05:41:16;;;;;;;93.75;66.95;;;6.30;99.90;;;;;;4948146;28;20180;-68
2021/10/30 05:43:46;;;;;;;88.07;61.67;;;6.30;99.90;;;;;;4945958;28;20137;-65
2021/10/30 05:46:13;;;;;;;90.68;66.13;;;6.30;99.90;;;;;;4946139;28;20070;-74
2021/10/30 05:48:41;;;;;;;96.95;68.45;;;6.30;99.90;;;;;;4952748;28;20511;-66
2021/10/30 05:51:12;;;;;;;92.60;62.17;;;6.30;99.90;;;;;;4949071;28;20055;-69
2021/10/30 05:53:40;;;;;;;92.70;65.25;;;6.40;99.90;;;;;;4961949;28;20350;-69
2021/10/30 05:56:07;;;;;;;95.40;65.53;;;6.40;99.90;;;;;;4966244;28;20094;-65
2021/10/30 05:58:34;;;;;;;104.13;67.45;;;6.40;99.90;;;;;;4964165;28;20062;-64
2021/10/30 06:01:01;;;;;;;96.38;66.85;;;6.40;99.90;;;;;;4966228;28;20185;-71
2021/10/30 06:03:29;;;;;;;101.68;68.65;;;6.50;99.90;;;;;;4967185;28;20054;-67
2021/10/30 06:05:56;;;;;;;99.80;69.28;;;6.50;99.90;;;;;;4965743;28;20117;-66
2021/10/30 06:08:23;;;;;;;99.50;70.40;;;6.50;99.90;;;;;;4965302;28;20477;-74
2021/10/30 06:10:50;;;;;;;105.88;72.32;;;6.50;99.90;;;;;;4966269;28;20058;-67
2021/10/30 06:13:17;;;;;;;94.88;68.55;;;6.60;99.90;;;;;;4965407;28;20125;-69
2021/10/30 06:15:44;;;;;;;99.28;68.55;;;6.60;99.90;;;;;;4966923;28;20167;-67
2021/10/30 06:18:11;;;;;;;102.07;70.38;;;6.60;99.90;;;;;;4956599;28;20075;-72
2021/10/30 06:20:38;;;;;;;106.28;71.65;;;6.60;99.90;;;;;;4967139;28;20066;-65
2021/10/30 06:23:05;;;;;;;97.25;69.28;;;6.60;99.90;;;;;;4965709;28;20166;-67
2021/10/30 06:25:32;;;;;;;100.65;68.78;;;6.60;99.90;;;;;;4967132;28;20105;-67
2021/10/30 06:27:59;;;;;;;95.93;69.13;;;6.70;99.90;;;;;;4967266;28;20046;-65
2021/10/30 06:30:26;;;;;;;104.60;73.22;;;6.70;99.90;;;;;;4971562;28;20067;-69
2021/10/30 06:32:53;;;;;;;98.88;69.13;;;6.80;99.90;;;;;;4970548;28;21359;-68
2021/10/30 06:35:20;;;;;;;103.80;68.68;;;6.80;99.90;;;;;;4971351;28;20103;-65
2021/10/30 06:37:47;;;;;;;98.50;65.90;;;6.90;99.90;;;;;;4969845;28;20125;-70
2021/10/30 06:40:15;;;;;;;88.88;66.05;;;6.90;99.90;;;;;;4969544;28;20079;-72
2021/10/30 06:42:42;;;;;;;97.35;66.00;;;7.00;99.90;;;;;;4970139;28;20105;-73
2021/10/30 06:45:10;;;;;;;92.45;66.47;;;7.10;99.90;;;;;;4970542;28;20164;-70
2021/10/30 06:47:38;;;;;;;95.20;65.30;;;7.10;99.90;;;;;;4972363;28;20066;-68
2021/10/30 06:50:07;;;;;;;91.80;63.90;;;7.20;99.90;;;;;;4986989;28;20518;-66
2021/10/30 06:52:38;;;;;;;91.32;63.03;;;7.20;99.90;;;;;;4970807;28;20074;-66
2021/10/30 06:55:09;;;;;;;91.68;64.60;;;7.30;99.90;;;;;;4971729;28;20361;-70
2021/10/30 06:57:37;;;;;;;78.32;60.17;;;7.40;99.90;;;;;;4971638;28;20447;-64
2021/10/30 07:00:07;;;;;;;88.45;61.30;;;7.40;99.90;;;;;;4970103;28;20448;-64
2021/10/30 07:02:34;;;;;;;81.75;60.65;;;7.50;99.90;;;;;;4959529;28;20150;-66
2021/10/30 07:05:05;;;;;;;78.07;55.13;;;7.50;99.90;;;;;;4968797;28;20046;-65
2021/10/30 07:07:33;;;;;;;78.65;56.72;;;7.50;99.90;;;;;;4973656;28;20039;-67
2021/10/30 07:10:00;;;;;;;77.18;59.92;;;7.60;99.90;;;;;;4956590;28;20070;-65
2021/10/30 07:12:29;;;;;;;78.82;57.63;;;7.60;99.90;;;;;;4956798;28;20122;-71
2021/10/30 07:14:56;;;;;;;80.00;57.90;;;7.60;99.90;;;;;;4958428;28;20142;-65
2021/10/30 07:17:24;;;;;;;84.82;59.25;;;7.60;99.90;;;;;;4961582;28;20035;-69
2021/10/30 07:19:51;;;;;;;76.53;57.65;;;7.60;99.90;;;;;;4955505;28;20077;-74
2021/10/30 07:22:18;;;;;;;80.50;55.80;;;7.70;99.90;;;;;;4949048;28;20081;-65
2021/10/30 07:24:46;;;;;;;70.00;54.08;;;7.70;99.90;;;;;;4950916;28;20481;-65
2021/10/30 07:27:16;;;;;;;79.20;57.83;;;7.70;99.90;;;;;;4950154;28;20095;-74
2021/10/30 07:29:46;;;;;;;;;;;7.70;99.90;;;;;;4950185;28;20402;-68
2021/10/30 07:32:13;;;;;;;82.22;61.40;;;7.70;99.90;;;;;;4947452;28;19951;-68
2021/10/30 07:34:40;;;;;;;73.70;55.30;;;7.80;99.90;;;;;;4962002;28;20098;-65
2021/10/30 07:37:07;;;;;;;74.03;54.75;;;7.90;99.90;;;;;;4960103;28;20086;-68
2021/10/30 07:39:34;;;;;;;67.20;51.85;;;7.90;99.90;;;;;;4969296;28;20601;-65
2021/10/30 07:42:03;;;;;;;71.30;55.10;;;7.90;99.90;;;;;;4968538;28;20046;-67
2021/10/30 07:44:30;;;;;;;77.40;56.15;;;7.90;99.90;;;;;;4969835;28;20234;-65
2021/10/30 07:46:57;;;;;;;74.13;56.95;;;7.90;99.90;;;;;;4969735;28;20109;-65
2021/10/30 07:49:24;;;;;;;78.10;54.10;;;8.00;99.90;;;;;;4987104;28;20078;-68
2021/10/30 07:51:51;;;;;;;70.20;51.88;;;8.00;99.90;;;;;;4971332;28;20046;-65
2021/10/30 07:54:18;;;;;;;71.95;54.33;;;8.10;99.90;;;;;;4968467;28;20356;-64
2021/10/30 07:56:45;;;;;;;80.90;56.33;;;8.10;99.90;;;;;;4971268;28;20121;-72
2021/10/30 07:59:12;;;;;;;71.55;54.17;;;8.20;99.90;;;;;;4968888;28;20051;-65
2021/10/30 08:01:39;;;;;;;70.55;51.72;;;8.30;99.90;;;;;;4970279;28;20050;-69
2021/10/30 08:04:09;;;;;;;68.47;51.40;;;8.30;99.90;;;;;;4982996;28;20142;-66
2021/10/30 08:06:36;;;;;;;76.32;53.75;;;8.30;99.90;;;;;;4964075;28;20586;-66
2021/10/30 08:09:04;;;;;;;66.38;52.47;;;8.40;99.90;;;;;;4966781;28;20089;-64
2021/10/30 08:11:31;;;;;;;67.53;55.63;;;8.40;99.90;;;;;;4953135;28;20461;-68
2021/10/30 08:13:57;;;;;;;73.35;53.83;;;8.50;99.90;;;;;;4960580;28;20465;-64
2021/10/30 08:16:24;;;;;;;66.65;51.47;;;8.60;99.90;;;;;;4956667;28;20071;-64
2021/10/30 08:18:51;;;;;;;68.25;51.03;;;8.60;99.90;;;;;;4971379;28;20047;-68
2021/10/30 08:21:19;;;;;;;71.38;52.20;;;8.70;99.90;;;;;;4985278;28;20050;-65
2021/10/30 08:23:46;;;;;;;69.22;50.30;;;8.80;99.90;;;;;;4969663;28;20128;-71
2021/10/30 08:26:13;;;;;;;68.47;53.58;;;8.90;99.90;;;;;;4967081;28;20039;-68
2021/10/30 08:28:40;;;;;;;66.25;49.90;;;9.00;99.90;;;;;;4969329;28;20137;-65
2021/10/30 08:31:07;;;;;;;68.70;49.90;;;9.10;99.90;;;;;;4971555;28;20113;-64
2021/10/30 08:33:35;;;;;;;73.07;48.92;;;9.20;99.90;;;;;;4969832;28;20054;-65
2021/10/30 08:36:03;;;;;;;62.97;50.00;;;9.30;99.90;;;;;;4966538;28;20585;-65
2021/10/30 08:38:31;;;;;;;66.78;49.92;;;9.40;99.90;;;;;;4983895;28;20050;-68
2021/10/30 08:40:59;;;;;;;68.07;49.97;;;9.50;99.90;;;;;;4970058;28;20059;-67
2021/10/30 08:43:27;;;;;;;63.28;46.42;;;9.60;99.90;;;;;;4982579;28;20101;-65
2021/10/30 08:45:56;;;;;;;61.45;46.88;;;9.60;99.90;;;;;;4970332;28;20074;-67
2021/10/30 08:48:25;;;;;;;62.97;49.90;;;9.70;99.90;;;;;;4967253;28;20102;-65
2021/10/30 08:50:53;;;;;;;71.05;46.30;;;9.70;99.90;;;;;;4970070;28;20392;-64
2021/10/30 08:53:22;;;;;;;61.78;47.65;;;9.80;99.90;;;;;;4969164;28;20069;-68
2021/10/30 08:55:49;;;;;;;57.97;45.92;;;9.80;99.90;;;;;;4969979;28;20660;-65
2021/10/30 08:58:18;;;;;;;62.03;46.83;;;9.90;99.90;;;;;;4964721;28;20816;-67
2021/10/30 09:00:51;;;;;;;63.40;47.45;;;9.90;99.90;;;;;;4968537;28;20051;-71
2021/10/30 09:03:20;;;;;;;65.30;48.58;;;9.90;99.90;;;;;;4968997;28;20050;-65
2021/10/30 09:05:50;;;;;;;63.10;48.30;;;9.90;99.90;;;;;;4968600;28;20074;-65
2021/10/30 09:08:18;;;;;;;;;;;9.90;99.90;;;;;;4967035;28;20495;-69
2021/10/30 09:10:50;;;;;;;70.53;52.13;;;9.90;99.90;;;;;;4968161;28;19969;-66
2021/10/30 09:13:26;;;;;;;60.28;46.75;;;9.80;99.90;;;;;;4983461;28;20120;-64
2021/10/30 09:15:54;;;;;;;67.80;49.60;;;9.80;99.90;;;;;;4968074;28;20121;-65
2021/10/30 09:18:21;;;;;;;65.55;50.88;;;9.80;99.90;;;;;;4967034;28;20043;-64
2021/10/30 09:20:52;;;;;;;66.35;52.22;;;9.80;99.90;;;;;;4968645;28;20054;-68
2021/10/30 09:23:26;;;;;;;69.63;50.60;;;9.70;99.90;;;;;;4967565;28;20074;-77
2021/10/30 09:25:55;;;;;;;66.47;50.20;;;9.80;99.90;;;;;;4975614;28;20050;-68
2021/10/30 09:28:24;;;;;;;63.75;47.92;;;9.70;99.90;;;;;;4963405;28;20055;-67
2021/10/30 09:31:00;;;;;;;68.80;50.45;;;9.80;99.90;;;;;;4967693;28;20066;-77
2021/10/30 09:33:32;;;;;;;74.45;50.92;;;9.80;99.90;;;;;;4955387;28;20071;-64
2021/10/30 09:36:10;;;;;;;61.72;47.65;;;9.80;99.90;;;;;;4957741;28;20086;-67
2021/10/30 09:38:39;;;;;;;60.47;46.97;;;9.80;99.90;;;;;;4965564;28;20051;-65
2021/10/30 09:41:25;;;;;;;62.10;46.70;;;9.90;99.90;;;;;;4967185;28;20122;-69
2021/10/30 09:43:53;;;;;;;61.90;47.78;;;9.90;99.90;;;;;;4969799;28;20046;-65
2021/10/30 09:46:20;;;;;;;56.22;44.97;;;10.00;99.90;;;;;;4965562;28;20141;-65
2021/10/30 09:48:47;;;;;;;59.35;45.33;;;10.10;99.90;;;;;;4963154;28;20621;-65
2021/10/30 09:51:31;;;;;;;50.78;39.03;;;10.10;99.90;;;;;;4949646;28;20047;-66
2021/10/30 09:53:59;;;;;;;59.60;43.78;;;10.20;99.90;;;;;;4940435;28;20047;-64
2021/10/30 09:56:56;;;;;;;67.63;45.22;;;10.30;99.90;;;;;;4947338;28;20077;-68
2021/10/30 09:59:25;;;;;;;56.10;43.85;;;10.40;99.90;;;;;;4945632;28;20129;-66
2021/10/30 10:01:52;;;;;;;55.85;42.17;;;10.40;99.90;;;;;;4947932;28;20074;-70
2021/10/30 10:04:21;;;;;;;52.67;41.20;;;10.40;99.90;;;;;;4945449;28;20054;-65
2021/10/30 10:06:49;;;;;;;50.72;38.17;;;10.50;99.90;;;;;;4947832;28;20055;-68
2021/10/30 10:09:17;;;;;;;48.67;39.45;;;10.50;99.90;;;;;;4945828;28;20082;-65
2021/10/30 10:11:49;;;;;;;52.72;40.60;;;10.50;99.90;;;;;;4961573;28;20055;-65
2021/10/30 10:14:18;;;;;;;54.00;41.63;;;10.50;99.90;;;;;;4964778;28;20398;-65
2021/10/30 10:16:52;;;;;;;57.13;43.45;;;10.60;99.90;;;;;;4966418;28;20122;-66
2021/10/30 10:19:21;;;;;;;47.78;38.65;;;10.60;99.90;;;;;;4957224;28;20047;-69
2021/10/30 10:21:49;;;;;;;53.45;40.85;;;10.60;99.90;;;;;;4947018;28;20090;-65
2021/10/30 10:24:18;;;;;;;61.63;43.08;;;10.70;99.90;;;;;;4949769;28;20048;-65
2021/10/30 10:26:48;;;;;;;51.30;38.73;;;10.70;99.90;;;;;;4966309;28;21337;-66
2021/10/30 10:29:28;;;;;;;51.67;39.90;;;10.70;99.90;;;;;;4957925;28;20974;-68
2021/10/30 10:31:56;;;;;;;52.15;38.88;;;10.70;99.90;;;;;;4967545;28;20320;-65
2021/10/30 10:34:28;;;;;;;48.67;37.00;;;10.70;99.90;;;;;;4965406;28;20051;-68
2021/10/30 10:37:10;;;;;;;43.05;35.38;;;10.80;99.90;;;;;;4966580;28;20082;-65
2021/10/30 10:39:46;;;;;;;49.78;37.22;;;10.80;99.90;;;;;;4966718;28;20047;-72
2021/10/30 10:42:14;;;;;;;50.83;36.97;;;10.80;99.90;;;;;;4965830;28;20071;-67
2021/10/30 10:44:43;;;;;;;46.33;35.85;;;10.80;99.90;;;;;;4966834;28;20039;-67
2021/10/30 10:47:39;;;;;;;46.13;37.45;;;10.80;99.90;;;;;;4967917;28;20078;-66
2021/10/30 10:50:08;;;;;;;50.90;36.88;;;10.90;99.90;;;;;;4964563;28;20461;-69
2021/10/30 10:52:35;;;;;;;43.58;33.63;;;10.90;99.90;;;;;;4966848;28;20080;-66
2021/10/30 10:55:02;;;;;;;47.22;34.92;;;11.00;99.90;;;;;;4967023;28;20144;-65
2021/10/30 10:57:34;;;;;;;45.38;36.60;;;11.00;99.90;;;;;;4965543;28;20055;-72
2021/10/30 11:00:09;;;;;;;41.75;33.65;;;11.00;99.90;;;;;;4950841;28;20126;-65
2021/10/30 11:02:39;;;;;;;45.13;33.42;;;11.10;99.90;;;;;;4947885;28;20047;-66
2021/10/30 11:05:09;;;;;;;47.78;33.75;;;11.10;99.90;;;;;;4947428;28;20142;-66
2021/10/30 11:07:51;;;;;;;42.60;33.95;;;11.10;99.90;;;;;;4947966;28;20047;-64
2021/10/30 11:10:26;;;;;;;37.50;30.98;;;11.10;99.90;;;;;;4943356;28;20055;-66
2021/10/30 11:13:02;;;;;;;38.55;30.90;;;11.20;99.90;;;;;;4947902;28;20059;-65
2021/10/30 11:15:54;;;;;;;46.55;31.73;;;11.20;99.90;;;;;;4948654;28;20043;-66
2021/10/30 11:21:24;;;;;;;38.33;30.75;;;11.40;99.90;;;;;;4977745;28;20050;-71
2021/10/30 11:23:54;;;;;;;37.47;31.33;;;11.40;99.90;;;;;;4959661;28;20074;-70
2021/10/30 11:26:33;;;;;;;39.25;30.20;;;11.40;99.90;;;;;;4951660;28;20050;-66
2021/10/30 11:29:11;;;;;;;41.70;30.90;;;11.50;99.90;;;;;;4951242;28;20067;-66
2021/10/30 11:31:40;;;;;;;35.03;29.45;;;11.60;99.90;;;;;;4942744;28;20445;-70
2021/10/30 11:34:10;;;;;;;37.97;30.85;;;11.70;99.90;;;;;;4967515;28;20492;-66
2021/10/30 11:36:41;;;;;;;36.22;28.60;;;11.70;99.90;;;;;;4951199;28;20051;-67
2021/10/30 11:39:13;;;;;;;34.95;28.75;;;11.80;99.90;;;;;;4950243;28;20067;-77
2021/10/30 11:41:43;;;;;;;38.00;28.70;;;11.90;99.90;;;;;;4950821;28;20075;-65
2021/10/30 11:44:12;;;;;;;33.63;29.30;;;11.90;99.90;;;;;;4958600;28;20138;-68
2021/10/30 11:46:41;;;;;;;37.13;29.00;;;12.00;99.90;;;;;;4972209;28;20074;-66
2021/10/30 11:49:08;;;;;;;33.50;28.60;;;12.00;99.90;;;;;;4969148;28;20050;-65
2021/10/30 11:51:35;;;;;;;34.40;27.13;;;12.10;99.90;;;;;;4970929;28;20062;-66
2021/10/30 11:54:06;;;;;;;38.90;29.52;;;12.10;99.90;;;;;;4966313;28;20624;-66
2021/10/30 11:56:33;;;;;;;36.78;28.90;;;12.10;99.90;;;;;;4969960;28;20047;-67
2021/10/30 11:59:05;;;;;;;36.28;28.65;;;12.20;99.90;;;;;;4970556;28;20046;-66
2021/10/30 12:01:52;;;;;;;33.67;27.23;;;12.20;99.90;;;;;;4958506;28;20061;-67
2021/10/30 12:04:36;;;;;;;37.33;26.85;;;12.20;99.90;;;;;;4968058;28;20069;-71
2021/10/30 12:07:12;;;;;;;39.28;30.05;;;12.20;99.90;;;;;;4962298;28;20047;-65
2021/10/30 12:09:41;;;;;;;31.58;27.67;;;12.30;99.90;;;;;;4963228;28;20122;-68
2021/10/30 12:12:26;;;;;;;32.22;27.63;;;12.20;99.90;;;;;;4968876;28;20416;-67
2021/10/30 12:14:55;;;;;;;38.13;31.33;;;12.20;99.90;;;;;;4974953;28;20117;-68
2021/10/30 12:17:29;;;;;;;40.17;28.52;;;12.20;99.90;;;;;;4969316;28;20130;-64
2021/10/30 12:20:00;;;;;;;34.50;28.60;;;12.20;99.90;;;;;;4967333;28;20117;-66
2021/10/30 12:22:30;;;;;;;36.85;26.67;;;12.20;99.90;;;;;;4967200;28;20047;-64
2021/10/30 12:25:25;;;;;;;39.30;30.02;;;12.20;99.90;;;;;;4966659;28;20106;-67
2021/10/30 12:27:55;;;;;;;36.83;28.73;;;12.10;99.90;;;;;;4964307;28;20051;-72
2021/10/30 12:30:24;;;;;;;38.33;28.05;;;12.10;99.90;;;;;;4969728;28;20452;-66
2021/10/30 12:32:52;;;;;;;34.85;29.10;;;12.10;99.90;;;;;;4970216;28;20047;-64
2021/10/30 12:35:21;;;;;;;34.08;30.38;;;12.10;99.90;;;;;;4968570;28;20109;-69
2021/10/30 12:37:49;;;;;;;38.22;28.90;;;12.00;99.90;;;;;;4967520;28;20625;-64
2021/10/30 12:40:30;;;;;;;36.78;29.85;;;12.00;99.90;;;;;;4967321;28;20054;-75
2021/10/30 12:43:04;;;;;;;33.08;29.40;;;11.90;99.90;;;;;;4962452;28;20045;-69
2021/10/30 12:46:11;;;;;;;36.22;30.20;;;11.90;99.90;;;;;;4977108;28;20046;-69
2021/10/30 12:48:45;;;;;;;35.28;30.38;;;11.90;99.90;;;;;;4957323;28;20074;-66